Williams, AZ

12:38 AM MST on September 28, 2016 (GMT -0700)
Williams, AZ | | Change Station

Elev 7100 ft 35.23 °N, 112.17 °W | Updated 1 minute ago

Mostly Cloudy
Mostly Cloudy
47.1 °F
Feels Like 47 °F
N
0.0
Wind Variable Wind from SSW
Gusts 1.0 mph

Today
High -- | Low -- °F
--% Chance of Precip.
Yesterday
High -- | Low -- °F
Precip. -- in
Pressure 30.09 in
Visibility 10.0 miles
Clouds Few 3700 ft
Scattered Clouds 6000 ft
Mostly Cloudy 8000 ft
Windchill 47 °F
Dew Point 44 °F
Humidity 88%
Rainfall 0.00 in
Snow Depth Not available.
6:21 AM 6:15 PM
Waning Crescent, 7% visible
METAR KFLG 280657Z AUTO 05003KT 10SM FEW037 SCT060 BKN080 09/08 A3030 RMK AO2 RAE42 SLP188 P0006 T00940083 401890067 $
Pressure 30.09 in
Visibility 10.0 miles
Clouds Few 3700 ft
Scattered Clouds 6000 ft
Mostly Cloudy 8000 ft
Windchill 47 °F
Dew Point 44 °F
Humidity 88%
Rainfall 0.00 in
Snow Depth Not available.
6:21 AM 6:15 PM
Waning Crescent, 7% visible
METAR KFLG 280657Z AUTO 05003KT 10SM FEW037 SCT060 BKN080 09/08 A3030 RMK AO2 RAE42 SLP188 P0006 T00940083 401890067 $

10-Day Weather Forecast

Almanac

Astronomy

Sep. 28, 2016 Rise Set
Actual Time
Civil Twilight
Nautical Twilight
Astronomical Twilight
Moon
Length of Visible Light
Length of Day
Tomorrow will be .
, % of the Moon is Illuminated

Today's Extremes

State Highs State Lows

Community

WunderPhotos

Upload Photos

1,942,216 photos uploaded!

WunderBlog® & News

Nearby

Air Quality

  Air Quality AQ Index Pollutant
Not available.

Snow Depth

Station Depth Elevation

Earthquake Activity

City Distance Mag. Time & Date
Minimum magnitude displayed is 2.5.

Coastal Water Temperatures

Place Temperature

Stations

Nearby Weather Stations

Station Location Temp. Windchill Dew Point Humidity Wind Precip. Elev Updated Type
                   

Watches & Warnings

There are currently no watches in effect.